Time;durP1;ratioP1;P1;durP2;ratioP2;P2;SDS_P1;SDS_P2;PMS_P1;PMS_P2;Temp;Humidity;BMP_temperature;BMP_pressure;BME280_temperature;BME280_humidity;BME280_pressure;Samples;Min_cycle;Max_cycle;Signal;HPM_P1;HPM_P2
2021/06/07 07:46:03;;;;;;;3.20;2.20;;;28.00;91.70;;;;;;3141151;23;20235;-69
2021/06/07 07:48:31;;;;;;;3.65;2.28;;;28.10;92.00;;;;;;4859100;29;20319;-70
2021/06/07 07:50:57;;;;;;;3.80;2.20;;;28.10;92.00;;;;;;4861552;29;20563;-70
2021/06/07 07:53:27;;;;;;;2.65;2.05;;;28.30;91.60;;;;;;4861103;29;20330;-70
2021/06/07 07:55:54;;;;;;;3.08;2.47;;;28.00;91.80;;;;;;4861536;29;20208;-69
2021/06/07 07:58:20;;;;;;;5.18;2.38;;;29.40;91.10;;;;;;4861495;29;20227;-70
2021/06/07 08:00:47;;;;;;;4.60;2.20;;;30.80;89.50;;;;;;4861531;29;20709;-70
2021/06/07 08:03:14;;;;;;;2.40;2.05;;;30.90;87.90;;;;;;4860605;29;20782;-70
2021/06/07 08:05:42;;;;;;;3.50;2.35;;;30.90;87.50;;;;;;4861039;29;20212;-70
2021/06/07 08:08:09;;;;;;;2.10;1.75;;;31.30;88.00;;;;;;4861072;29;20222;-70
2021/06/07 08:10:35;;;;;;;2.92;1.83;;;32.10;85.20;;;;;;4861166;29;20284;-70
2021/06/07 08:13:02;;;;;;;4.57;2.28;;;32.50;83.30;;;;;;4861092;29;20243;-70
2021/06/07 08:15:29;;;;;;;2.60;2.00;;;32.40;83.70;;;;;;4860689;29;20212;-70
2021/06/07 08:17:55;;;;;;;2.42;2.03;;;32.00;81.70;;;;;;4860793;29;20464;-70
2021/06/07 08:20:22;;;;;;;2.00;1.60;;;29.70;86.00;;;;;;4860807;29;20245;-69
2021/06/07 08:22:52;;;;;;;2.42;1.58;;;29.80;85.80;;;;;;4860582;29;20334;-69
2021/06/07 08:25:19;;;;;;;2.72;1.83;;;29.90;86.40;;;;;;4860820;29;20243;-69
2021/06/07 08:27:45;;;;;;;1.95;1.65;;;30.00;86.70;;;;;;4857273;29;20208;-76
2021/06/07 08:30:13;;;;;;;2.90;1.90;;;30.00;86.40;;;;;;4858919;29;20216;-72
2021/06/07 08:32:40;;;;;;;2.20;1.58;;;30.50;83.90;;;;;;4859834;29;20324;-71
2021/06/07 08:35:09;;;;;;;2.33;1.80;;;29.90;83.90;;;;;;4859061;29;20597;-71
2021/06/07 08:37:36;;;;;;;3.00;1.65;;;30.50;83.80;;;;;;4859497;29;20215;-72
2021/06/07 08:40:06;;;;;;;3.42;1.52;;;30.90;81.50;;;;;;4858184;29;20208;-75
2021/06/07 08:42:34;;;;;;;2.67;1.48;;;31.50;82.00;;;;;;4858578;29;20640;-71
2021/06/07 08:45:00;;;;;;;1.63;1.40;;;31.70;80.50;;;;;;4859379;29;20244;-71
2021/06/07 08:47:28;;;;;;;1.75;1.27;;;31.70;77.60;;;;;;4858222;29;20242;-71
2021/06/07 08:49:54;;;;;;;1.90;1.40;;;30.90;79.90;;;;;;4858365;29;20212;-70
2021/06/07 08:52:21;;;;;;;2.55;1.60;;;30.50;80.80;;;;;;4858313;29;20236;-70
2021/06/07 08:54:48;;;;;;;2.33;1.40;;;30.10;82.80;;;;;;4859401;29;20215;-70
2021/06/07 08:57:18;;;;;;;2.88;1.77;;;30.30;81.10;;;;;;4858450;29;20219;-69
2021/06/07 08:59:44;;;;;;;1.75;1.52;;;30.00;83.10;;;;;;4859596;29;20208;-71
2021/06/07 09:02:11;;;;;;;2.75;1.80;;;29.60;84.00;;;;;;4859059;29;20584;-71
2021/06/07 09:04:47;;;;;;;4.05;1.48;;;28.90;84.90;;;;;;4858902;29;20239;-72
2021/06/07 09:07:13;;;;;;;2.05;1.35;;;28.00;84.80;;;;;;4859445;29;20263;-70
2021/06/07 09:09:40;;;;;;;3.47;1.98;;;27.60;87.20;;;;;;4859091;29;20299;-67
2021/06/07 09:12:11;;;;;;;3.53;1.70;;;27.60;89.30;;;;;;4858501;29;20240;-70
2021/06/07 09:14:40;;;;;;;3.15;1.90;;;27.00;89.60;;;;;;4859057;29;20251;-70
2021/06/07 09:17:16;;;;;;;1.73;1.33;;;27.60;88.50;;;;;;4858582;29;20738;-68
2021/06/07 09:19:42;;;;;;;3.30;1.33;;;28.90;87.40;;;;;;4859025;29;20219;-71
2021/06/07 09:22:22;;;;;;;2.90;1.20;;;29.20;84.90;;;;;;4859127;29;20220;-71
2021/06/07 09:25:03;;;;;;;3.40;1.42;;;28.50;86.70;;;;;;4858925;29;20725;-70
2021/06/07 09:27:29;;;;;;;2.13;1.50;;;28.50;86.50;;;;;;4858757;29;20207;-70
2021/06/07 09:29:57;;;;;;;3.83;1.30;;;27.20;88.80;;;;;;4859376;29;20237;-71
2021/06/07 09:32:24;;;;;;;2.30;1.80;;;27.30;89.50;;;;;;4858970;29;20357;-70
2021/06/07 09:35:07;;;;;;;2.20;1.50;;;26.20;90.80;;;;;;4858979;29;20212;-71
2021/06/07 09:37:34;;;;;;;2.90;1.88;;;25.60;91.50;;;;;;4858114;29;20287;-68
2021/06/07 09:40:19;;;;;;;2.17;1.45;;;26.30;90.60;;;;;;4858417;29;20208;-71
2021/06/07 09:42:55;;;;;;;2.80;1.95;;;26.30;90.80;;;;;;4860194;29;20697;-72
2021/06/07 09:45:44;;;;;;;2.42;1.50;;;25.90;91.20;;;;;;4862014;29;20240;-71
2021/06/07 09:48:15;;;;;;;2.38;1.63;;;25.50;92.10;;;;;;4859828;29;20239;-71
2021/06/07 09:50:53;;;;;;;2.05;1.65;;;26.20;92.30;;;;;;4860087;29;20208;-72
2021/06/07 09:53:40;;;;;;;2.33;1.70;;;26.80;91.20;;;;;;4860816;29;20236;-71
2021/06/07 09:56:07;;;;;;;2.70;1.58;;;26.10;91.30;;;;;;4860591;29;20219;-72
2021/06/07 09:58:35;;;;;;;2.33;1.83;;;25.70;92.10;;;;;;4860819;29;20266;-71
2021/06/07 10:01:09;;;;;;;2.33;1.45;;;25.60;92.40;;;;;;4861017;29;20310;-70
2021/06/07 10:03:41;;;;;;;2.13;1.55;;;25.50;92.80;;;;;;4860388;29;20251;-71
2021/06/07 10:06:22;;;;;;;1.83;1.50;;;25.50;92.50;;;;;;4861443;29;20211;-69
2021/06/07 10:08:50;;;;;;;2.90;1.33;;;25.30;91.80;;;;;;4842714;29;20557;-71
2021/06/07 10:11:18;;;;;;;2.17;1.58;;;24.50;91.40;;;;;;4850631;29;20212;-71
2021/06/07 10:13:44;;;;;;;2.58;1.52;;;24.10;92.50;;;;;;4861451;29;20236;-69
2021/06/07 10:16:12;;;;;;;2.40;1.60;;;24.10;91.80;;;;;;4860783;29;20222;-69
2021/06/07 10:18:41;;;;;;;5.30;2.05;;;23.80;92.30;;;;;;4860087;29;20293;-70
2021/06/07 10:21:08;;;;;;;3.00;1.40;;;23.10;93.00;;;;;;4861322;29;20223;-71
2021/06/07 10:23:34;;;;;;;2.63;1.60;;;22.90;93.80;;;;;;4859431;29;20708;-69
2021/06/07 10:26:02;;;;;;;5.53;1.65;;;22.70;94.30;;;;;;4860911;29;20237;-69
2021/06/07 10:28:31;;;;;;;1.95;1.38;;;22.50;93.90;;;;;;4861678;29;20212;-70
2021/06/07 10:30:59;;;;;;;3.03;1.90;;;22.50;93.80;;;;;;4861763;29;20216;-70
2021/06/07 10:33:29;;;;;;;2.70;1.75;;;22.50;94.40;;;;;;4861230;29;20232;-70
2021/06/07 10:35:58;;;;;;;2.25;1.90;;;22.40;94.90;;;;;;4861658;29;20246;-70
2021/06/07 10:38:29;;;;;;;2.03;1.58;;;22.30;95.30;;;;;;4860816;29;20228;-70
2021/06/07 10:41:17;;;;;;;4.53;2.10;;;22.70;94.10;;;;;;4860497;29;20208;-71
2021/06/07 10:43:45;;;;;;;2.50;1.75;;;22.70;94.60;;;;;;4861205;29;20244;-71
2021/06/07 10:46:23;;;;;;;3.65;2.13;;;22.80;94.50;;;;;;4860193;29;20303;-69
2021/06/07 10:48:53;;;;;;;3.58;2.03;;;22.70;94.70;;;;;;4839838;29;20702;-71
2021/06/07 10:51:22;;;;;;;2.05;1.42;;;22.50;95.20;;;;;;4842582;29;20269;-73
2021/06/07 10:53:50;;;;;;;4.57;2.10;;;22.80;95.00;;;;;;4841346;29;20607;-72
2021/06/07 10:56:17;;;;;;;3.03;1.80;;;22.70;94.10;;;;;;4842714;29;20239;-72
2021/06/07 10:58:52;;;;;;;2.47;1.92;;;22.50;94.80;;;;;;4860500;29;20549;-71
2021/06/07 11:01:18;;;;;;;3.13;1.88;;;22.50;95.50;;;;;;4861417;29;20664;-71
2021/06/07 11:03:58;;;;;;;2.92;1.80;;;22.70;95.10;;;;;;4859871;29;20752;-72
2021/06/07 11:06:24;;;;;;;2.55;1.45;;;22.90;95.90;;;;;;4860329;29;20219;-71
2021/06/07 11:09:04;;;;;;;1.30;1.10;;;22.60;94.30;;;;;;4861153;29;20239;-71
2021/06/07 11:11:43;;;;;;;3.10;1.35;;;22.30;93.80;;;;;;4860779;29;20276;-73
2021/06/07 11:14:09;;;;;;;1.58;1.20;;;22.30;93.80;;;;;;4862090;29;20267;-72
2021/06/07 11:16:38;;;;;;;1.67;1.27;;;22.30;95.00;;;;;;4862206;29;20302;-73
2021/06/07 11:19:07;;;;;;;2.45;1.40;;;22.50;93.70;;;;;;4861923;29;20616;-72
2021/06/07 11:21:38;;;;;;;2.30;1.60;;;22.40;93.30;;;;;;4862421;29;20212;-71
2021/06/07 11:24:28;;;;;;;1.98;1.27;;;22.30;93.90;;;;;;4861991;29;20258;-71
2021/06/07 11:26:55;;;;;;;3.85;1.65;;;22.30;93.70;;;;;;4862162;29;20212;-72
2021/06/07 11:29:22;;;;;;;1.90;1.10;;;22.50;94.30;;;;;;4861913;29;20208;-71
2021/06/07 11:31:54;;;;;;;1.70;1.23;;;22.70;94.50;;;;;;4861750;29;20218;-70
2021/06/07 11:34:41;;;;;;;2.90;1.80;;;22.60;95.00;;;;;;4861650;29;20215;-71
2021/06/07 11:37:09;;;;;;;2.15;1.88;;;22.90;94.70;;;;;;4861867;29;20564;-71
2021/06/07 11:39:52;;;;;;;2.25;1.50;;;22.50;94.50;;;;;;4861825;29;20642;-70
2021/06/07 11:42:24;;;;;;;2.65;1.75;;;22.40;95.20;;;;;;4861489;29;20315;-73
2021/06/07 11:44:53;;;;;;;2.63;2.00;;;22.60;94.70;;;;;;4861623;29;20236;-72
2021/06/07 11:47:21;;;;;;;4.95;2.17;;;22.80;93.50;;;;;;4861172;29;20310;-73
2021/06/07 11:50:10;;;;;;;2.58;1.90;;;22.80;94.10;;;;;;4856643;29;21287;-71
2021/06/07 11:52:50;;;;;;;2.97;1.95;;;22.50;93.90;;;;;;4853964;29;20232;-72
2021/06/07 11:55:28;;;;;;;3.85;2.00;;;22.60;94.30;;;;;;4860998;29;20314;-71
2021/06/07 11:58:08;;;;;;;1.98;1.55;;;22.70;94.60;;;;;;4861149;29;20268;-72
2021/06/07 12:00:36;;;;;;;3.30;2.20;;;22.60;94.70;;;;;;4861304;29;20226;-72
2021/06/07 12:03:07;;;;;;;3.33;1.77;;;22.40;94.40;;;;;;4861160;29;20287;-70
2021/06/07 12:05:35;;;;;;;2.53;1.70;;;22.20;95.80;;;;;;4855045;29;20715;-70
2021/06/07 12:08:07;;;;;;;2.25;1.67;;;22.50;94.70;;;;;;4859926;29;20212;-72
2021/06/07 12:10:34;;;;;;;3.00;1.60;;;22.40;94.70;;;;;;4859506;29;20211;-73
2021/06/07 12:13:29;;;;;;;2.10;1.67;;;22.70;94.20;;;;;;4859621;29;20239;-72
2021/06/07 12:15:59;;;;;;;3.10;2.00;;;22.70;94.20;;;;;;4836624;29;20224;-76
2021/06/07 12:18:44;;;;;;;2.53;2.00;;;22.80;93.90;;;;;;4859919;29;20561;-74
2021/06/07 12:21:17;;;;;;;4.30;1.80;;;22.70;94.20;;;;;;4858439;29;20298;-72
2021/06/07 12:23:48;;;;;;;2.67;2.17;;;23.00;93.60;;;;;;4858441;29;20561;-73
2021/06/07 12:29:25;;;;;;;3.65;1.58;;;23.30;93.40;;;;;;4841331;29;20215;-71
2021/06/07 12:32:12;;;;;;;2.33;1.40;;;23.20;92.90;;;;;;4841706;29;20220;-73
2021/06/07 12:34:59;;;;;;;2.97;1.90;;;22.90;93.80;;;;;;4845554;29;20298;-70
2021/06/07 12:37:28;;;;;;;2.28;1.52;;;22.60;94.20;;;;;;4859604;29;20208;-71
2021/06/07 12:40:10;;;;;;;1.92;1.35;;;22.80;94.10;;;;;;4859384;29;20303;-71
2021/06/07 12:42:37;;;;;;;2.17;1.52;;;22.70;93.50;;;;;;4858673;29;20588;-72
2021/06/07 12:45:06;;;;;;;3.45;1.77;;;22.80;93.30;;;;;;4858559;29;20383;-74
2021/06/07 12:47:32;;;;;;;3.15;1.60;;;22.70;93.10;;;;;;4858762;29;20231;-72
2021/06/07 12:50:08;;;;;;;1.83;1.30;;;22.60;93.30;;;;;;4858902;29;20216;-72
2021/06/07 12:52:36;;;;;;;2.05;1.20;;;22.50;93.30;;;;;;4858648;29;20232;-71
2021/06/07 12:55:03;;;;;;;1.88;1.30;;;22.60;92.10;;;;;;4859050;29;20240;-72
2021/06/07 12:57:30;;;;;;;2.38;1.10;;;22.60;93.00;;;;;;4859207;29;20268;-71
2021/06/07 12:59:58;;;;;;;1.38;1.10;;;22.80;93.00;;;;;;4860909;29;20212;-70
2021/06/07 13:02:34;;;;;;;1.52;1.15;;;23.00;93.60;;;;;;4859627;29;20239;-71
2021/06/07 13:05:01;;;;;;;1.25;1.10;;;22.90;92.50;;;;;;4859241;29;20603;-71
2021/06/07 13:07:28;;;;;;;1.92;1.45;;;23.10;93.20;;;;;;4859515;29;20227;-71
2021/06/07 13:09:56;;;;;;;3.22;1.88;;;23.30;91.90;;;;;;4859346;29;20212;-71
2021/06/07 13:12:24;;;;;;;4.03;2.05;;;23.50;91.80;;;;;;4858685;29;20242;-72
2021/06/07 13:14:52;;;;;;;2.20;1.30;;;23.70;91.10;;;;;;4858720;29;20683;-75
2021/06/07 13:17:20;;;;;;;2.22;1.58;;;23.70;91.70;;;;;;4861983;29;20392;-72
2021/06/07 13:19:50;;;;;;;1.75;1.30;;;23.80;91.70;;;;;;4863905;29;20659;-72
2021/06/07 13:22:17;;;;;;;1.48;1.17;;;23.80;91.90;;;;;;4863943;29;20735;-74
2021/06/07 13:24:45;;;;;;;1.95;1.20;;;23.80;92.20;;;;;;4863887;29;20741;-74
2021/06/07 13:27:19;;;;;;;2.10;1.20;;;23.50;91.40;;;;;;4863100;29;20219;-73
2021/06/07 13:29:47;;;;;;;1.15;1.00;;;23.50;91.50;;;;;;4864360;29;20299;-71
2021/06/07 13:32:25;;;;;;;1.60;1.00;;;23.60;91.90;;;;;;4865203;29;20270;-71
2021/06/07 13:34:54;;;;;;;1.38;1.10;;;23.70;92.50;;;;;;4864958;29;20307;-78
2021/06/07 13:37:28;;;;;;;1.25;0.90;;;23.80;91.90;;;;;;4864961;29;20624;-75
2021/06/07 13:40:04;;;;;;;1.40;1.20;;;23.70;92.30;;;;;;4863690;29;20223;-72
2021/06/07 13:42:46;;;;;;;3.47;1.27;;;23.60;91.70;;;;;;4864026;29;20239;-72
2021/06/07 13:45:15;;;;;;;2.30;0.90;;;23.50;91.30;;;;;;4864351;29;20249;-75
2021/06/07 13:47:49;;;;;;;1.60;1.00;;;23.70;91.90;;;;;;4864612;29;20227;-74
2021/06/07 13:50:17;;;;;;;2.20;1.05;;;23.80;90.70;;;;;;4864189;29;20203;-71
2021/06/07 13:52:53;;;;;;;2.03;1.20;;;24.10;91.50;;;;;;4864390;29;20232;-72
2021/06/07 13:55:29;;;;;;;2.28;1.02;;;24.00;91.70;;;;;;4864433;29;20281;-73
2021/06/07 13:58:06;;;;;;;3.83;1.20;;;23.90;91.00;;;;;;4863169;29;20211;-70
2021/06/07 14:00:35;;;;;;;2.15;1.08;;;23.80;90.70;;;;;;4863626;29;20212;-69
2021/06/07 14:03:02;;;;;;;3.10;1.30;;;23.80;92.00;;;;;;4863303;29;20231;-70
2021/06/07 14:05:29;;;;;;;1.45;0.85;;;23.90;91.50;;;;;;4863260;29;20266;-72
2021/06/07 14:07:56;;;;;;;1.50;0.90;;;24.00;90.90;;;;;;4862909;29;20214;-70
2021/06/07 14:10:22;;;;;;;1.38;1.10;;;24.10;90.80;;;;;;4863229;29;20216;-71
2021/06/07 14:12:49;;;;;;;1.55;1.02;;;23.90;91.20;;;;;;4862861;29;20244;-70
2021/06/07 14:15:17;;;;;;;1.15;0.80;;;23.90;90.30;;;;;;4861913;29;20739;-71
2021/06/07 14:17:44;;;;;;;1.13;1.00;;;23.60;90.80;;;;;;4862364;29;20612;-70
2021/06/07 14:20:12;;;;;;;1.35;1.02;;;23.40;91.90;;;;;;4862624;29;20216;-71
2021/06/07 14:25:23;;;;;;;1.60;1.13;;;23.60;91.10;;;;;;4862332;29;20259;-73
2021/06/07 14:27:49;;;;;;;1.58;1.10;;;23.70;90.70;;;;;;4862607;29;20238;-70
2021/06/07 14:30:17;;;;;;;3.92;1.00;;;23.80;91.70;;;;;;4863880;29;20208;-71
2021/06/07 14:32:44;;;;;;;2.83;1.13;;;23.70;91.70;;;;;;4862401;29;20721;-71
2021/06/07 14:35:11;;;;;;;1.42;1.00;;;23.70;90.40;;;;;;4863481;29;20654;-70
2021/06/07 14:37:37;;;;;;;1.60;0.90;;;23.70;90.60;;;;;;4856620;29;20321;-71
2021/06/07 14:40:04;;;;;;;2.60;0.85;;;23.70;90.40;;;;;;4860915;29;20264;-70
2021/06/07 14:42:31;;;;;;;1.33;0.80;;;23.70;90.80;;;;;;4862325;29;20590;-71
2021/06/07 14:44:57;;;;;;;1.63;0.82;;;23.80;91.40;;;;;;4862568;29;20242;-70
2021/06/07 14:47:26;;;;;;;0.73;0.70;;;23.80;90.40;;;;;;4861832;29;20636;-71
2021/06/07 14:49:53;;;;;;;2.35;1.15;;;24.10;90.50;;;;;;4862396;29;20293;-71
2021/06/07 14:52:19;;;;;;;2.28;0.90;;;24.10;90.70;;;;;;4862245;29;20263;-71
2021/06/07 14:54:45;;;;;;;1.23;0.85;;;24.00;91.10;;;;;;4862473;29;20223;-73
2021/06/07 14:57:12;;;;;;;1.48;0.90;;;23.80;90.70;;;;;;4861735;29;20675;-70
2021/06/07 14:59:40;;;;;;;3.17;1.00;;;24.00;90.70;;;;;;4861809;29;20711;-70
2021/06/07 15:02:06;;;;;;;1.05;0.82;;;24.00;91.60;;;;;;4862013;29;20271;-70
2021/06/07 15:04:34;;;;;;;2.28;0.90;;;24.10;92.10;;;;;;4862264;29;20244;-70
2021/06/07 15:07:00;;;;;;;1.85;1.13;;;24.40;91.10;;;;;;4861989;29;20208;-71
2021/06/07 15:09:26;;;;;;;1.20;0.95;;;24.20;91.00;;;;;;4862049;29;20216;-70
2021/06/07 15:11:53;;;;;;;1.20;1.05;;;23.90;90.80;;;;;;4861719;29;20693;-70
2021/06/07 15:14:19;;;;;;;1.60;1.00;;;23.60;91.50;;;;;;4861899;29;20212;-70
2021/06/07 15:16:45;;;;;;;1.65;0.95;;;23.40;91.40;;;;;;4861743;29;20216;-70
2021/06/07 15:19:11;;;;;;;2.72;1.10;;;23.50;92.20;;;;;;4861375;29;20659;-71
2021/06/07 15:21:39;;;;;;;2.00;0.98;;;23.50;91.20;;;;;;4861786;29;20567;-70
2021/06/07 15:24:06;;;;;;;1.80;1.20;;;23.60;92.10;;;;;;4861393;29;20236;-70
2021/06/07 15:26:32;;;;;;;1.50;1.05;;;23.70;91.10;;;;;;4861816;29;20208;-70
2021/06/07 15:28:58;;;;;;;1.75;1.15;;;24.00;91.00;;;;;;4861401;29;20660;-70
2021/06/07 15:31:25;;;;;;;1.20;1.10;;;24.00;90.50;;;;;;4861522;29;20315;-70
2021/06/07 15:33:51;;;;;;;1.00;0.80;;;24.00;90.60;;;;;;4861268;29;20267;-70
2021/06/07 15:36:18;;;;;;;2.60;0.95;;;24.20;91.40;;;;;;4861550;29;20220;-70
2021/06/07 15:38:45;;;;;;;3.10;1.20;;;24.00;91.60;;;;;;4861144;29;20679;-70
2021/06/07 15:41:15;;;;;;;2.47;1.15;;;23.90;91.10;;;;;;4861846;29;20216;-70
2021/06/07 15:43:44;;;;;;;2.17;1.10;;;23.90;91.30;;;;;;4861232;29;20239;-71
2021/06/07 15:46:12;;;;;;;1.17;1.02;;;24.10;91.10;;;;;;4861539;29;20271;-71
2021/06/07 15:48:40;;;;;;;1.98;1.30;;;24.20;91.20;;;;;;4860665;29;20219;-70
2021/06/07 15:51:07;;;;;;;3.28;1.45;;;23.70;91.70;;;;;;4861276;29;20234;-70
2021/06/07 15:53:34;;;;;;;1.77;1.10;;;23.70;91.60;;;;;;4861517;29;20232;-70
2021/06/07 15:56:02;;;;;;;0.93;0.90;;;24.00;91.10;;;;;;4861482;29;20626;-70
2021/06/07 15:58:28;;;;;;;1.40;1.10;;;24.00;91.20;;;;;;4860991;29;20220;-70
2021/06/07 16:00:55;;;;;;;1.30;0.90;;;23.90;90.90;;;;;;4861191;29;20212;-70
2021/06/07 16:03:21;;;;;;;1.33;1.10;;;24.20;90.30;;;;;;4861077;29;20236;-70
2021/06/07 16:05:48;;;;;;;1.45;1.10;;;24.30;91.40;;;;;;4861214;29;20240;-70
2021/06/07 16:08:15;;;;;;;2.97;1.02;;;24.50;90.70;;;;;;4861138;29;20303;-70
2021/06/07 16:10:42;;;;;;;1.27;1.10;;;24.40;91.10;;;;;;4861209;29;20212;-70
2021/06/07 16:13:10;;;;;;;1.48;1.23;;;24.50;91.00;;;;;;4861098;29;20251;-70
2021/06/07 16:15:36;;;;;;;0.98;0.88;;;24.50;90.70;;;;;;4860939;29;20256;-70
2021/06/07 16:18:06;;;;;;;3.85;1.30;;;24.40;91.40;;;;;;4860678;29;20208;-70
2021/06/07 16:23:19;;;;;;;1.27;0.90;;;24.30;91.00;;;;;;4860842;29;20238;-70
2021/06/07 16:25:49;;;;;;;1.50;1.10;;;24.50;90.20;;;;;;4860494;29;20243;-70
2021/06/07 16:28:18;;;;;;;1.20;0.93;;;24.40;90.60;;;;;;4860274;29;20303;-70
2021/06/07 16:30:45;;;;;;;3.30;1.10;;;24.10;90.90;;;;;;4860113;29;20639;-71
2021/06/07 16:33:11;;;;;;;1.25;1.00;;;24.10;91.00;;;;;;4860632;29;20723;-70
2021/06/07 16:35:38;;;;;;;2.15;1.30;;;24.20;91.10;;;;;;4860757;29;20216;-71
2021/06/07 16:38:04;;;;;;;6.25;1.48;;;24.40;91.00;;;;;;4859267;29;20220;-70
2021/06/07 16:40:31;;;;;;;1.60;1.10;;;24.30;91.40;;;;;;4860390;29;20208;-70
2021/06/07 16:42:57;;;;;;;2.85;1.60;;;24.40;90.50;;;;;;4860607;29;20232;-71
2021/06/07 16:45:25;;;;;;;1.83;1.20;;;24.30;89.80;;;;;;4860791;29;20236;-71
2021/06/07 16:47:52;;;;;;;2.50;1.50;;;24.40;90.50;;;;;;4860256;29;20223;-70
2021/06/07 16:50:19;;;;;;;2.13;1.30;;;24.20;90.20;;;;;;4860287;29;20212;-70
2021/06/07 16:52:47;;;;;;;2.42;1.45;;;24.10;90.90;;;;;;4860472;29;20323;-70
2021/06/07 16:55:14;;;;;;;2.63;1.00;;;24.00;90.40;;;;;;4860399;29;20208;-71
2021/06/07 16:57:40;;;;;;;2.30;1.27;;;24.00;90.60;;;;;;4860310;29;20271;-69
2021/06/07 17:00:07;;;;;;;1.60;1.27;;;24.20;91.30;;;;;;4860487;29;20553;-71
2021/06/07 17:02:35;;;;;;;1.00;0.90;;;24.30;90.70;;;;;;4860187;29;20704;-69
2021/06/07 17:05:01;;;;;;;2.63;0.98;;;24.40;90.50;;;;;;4860049;29;20243;-68
2021/06/07 17:07:28;;;;;;;1.58;1.33;;;24.40;90.40;;;;;;4860321;29;20253;-68
2021/06/07 17:09:54;;;;;;;1.95;1.48;;;24.50;90.30;;;;;;4860138;29;20215;-70
2021/06/07 17:12:20;;;;;;;3.20;1.15;;;24.40;90.90;;;;;;4860209;29;20719;-70
2021/06/07 17:14:48;;;;;;;1.38;1.10;;;24.20;91.60;;;;;;4860639;29;20212;-71
2021/06/07 17:17:17;;;;;;;1.77;0.90;;;24.30;91.20;;;;;;4860031;29;20208;-68
2021/06/07 17:19:45;;;;;;;3.08;1.10;;;24.40;91.30;;;;;;4860204;29;20294;-70
2021/06/07 17:22:11;;;;;;;1.65;1.10;;;24.00;91.00;;;;;;4860683;29;20326;-70
2021/06/07 17:24:37;;;;;;;1.75;1.00;;;23.90;91.20;;;;;;4859958;29;20620;-71
2021/06/07 17:27:04;;;;;;;1.15;0.98;;;23.90;91.40;;;;;;4860193;29;20215;-70
2021/06/07 17:29:31;;;;;;;1.70;0.88;;;23.60;91.70;;;;;;4860332;29;20667;-70
2021/06/07 17:31:57;;;;;;;2.15;0.95;;;23.50;92.20;;;;;;4860263;29;20219;-70
2021/06/07 17:34:23;;;;;;;3.65;1.25;;;23.70;92.30;;;;;;4860274;29;20212;-70
2021/06/07 17:36:52;;;;;;;2.03;1.00;;;23.70;92.20;;;;;;4860162;29;20212;-70
2021/06/07 17:39:18;;;;;;;1.00;0.90;;;23.50;92.10;;;;;;4860265;29;20628;-70
2021/06/07 17:41:45;;;;;;;1.25;1.15;;;23.60;92.30;;;;;;4860013;29;20228;-70
2021/06/07 17:44:12;;;;;;;1.70;1.02;;;23.70;91.90;;;;;;4860288;29;20244;-70
2021/06/07 17:46:38;;;;;;;2.35;1.10;;;23.90;90.90;;;;;;4860206;29;20290;-70
2021/06/07 17:49:04;;;;;;;1.77;1.00;;;24.10;90.70;;;;;;4860140;29;20216;-70
2021/06/07 17:51:31;;;;;;;1.35;1.20;;;24.00;90.30;;;;;;4859537;29;20208;-69
2021/06/07 17:53:58;;;;;;;3.75;1.15;;;24.00;90.40;;;;;;4860300;29;20246;-70
2021/06/07 17:56:25;;;;;;;2.70;1.42;;;24.00;90.40;;;;;;4860310;29;20216;-69
2021/06/07 17:58:51;;;;;;;1.77;1.00;;;24.10;90.80;;;;;;4859862;29;20264;-71
2021/06/07 18:01:18;;;;;;;1.10;1.00;;;23.90;91.10;;;;;;4860331;29;20688;-71
2021/06/07 18:03:44;;;;;;;1.30;0.98;;;23.80;91.80;;;;;;4861506;29;20591;-69
2021/06/07 18:06:11;;;;;;;1.45;1.20;;;23.60;92.10;;;;;;4862824;29;20239;-71
2021/06/07 18:08:37;;;;;;;1.38;1.08;;;23.50;92.10;;;;;;4863039;29;20223;-71
2021/06/07 18:11:07;;;;;;;1.90;1.20;;;23.50;92.50;;;;;;4863121;29;20216;-70
2021/06/07 18:13:34;;;;;;;1.98;1.00;;;23.50;92.70;;;;;;4863293;29;20588;-71
2021/06/07 18:16:03;;;;;;;2.10;0.90;;;23.30;92.20;;;;;;4863435;29;20216;-72
2021/06/07 18:18:31;;;;;;;1.38;1.17;;;23.10;92.70;;;;;;4863008;29;20215;-71
2021/06/07 18:20:57;;;;;;;2.55;1.10;;;23.00;93.00;;;;;;4862895;29;20310;-71
2021/06/07 18:23:24;;;;;;;2.28;1.30;;;23.10;92.70;;;;;;4863240;29;20235;-71
2021/06/07 18:25:50;;;;;;;1.17;0.95;;;23.10;92.50;;;;;;4862974;29;20236;-71
2021/06/07 18:28:19;;;;;;;1.55;0.90;;;22.90;93.00;;;;;;4862917;29;20264;-72
2021/06/07 18:30:46;;;;;;;1.52;1.10;;;23.00;93.00;;;;;;4863440;29;20311;-72
2021/06/07 18:33:13;;;;;;;2.25;1.10;;;22.90;92.90;;;;;;4862428;29;20243;-72
2021/06/07 18:35:40;;;;;;;1.67;1.00;;;22.80;92.90;;;;;;4863019;29;20243;-71
2021/06/07 18:38:06;;;;;;;1.95;0.85;;;22.70;93.40;;;;;;4862765;29;20649;-71
2021/06/07 18:40:32;;;;;;;1.25;1.00;;;22.70;93.70;;;;;;4862794;29;20212;-72
2021/06/07 18:42:58;;;;;;;2.42;1.02;;;22.80;93.90;;;;;;4862750;29;20236;-72
2021/06/07 18:45:26;;;;;;;2.35;1.10;;;22.90;93.80;;;;;;4862243;29;20240;-69
2021/06/07 18:47:53;;;;;;;1.15;1.05;;;22.90;93.80;;;;;;4861719;29;20576;-72
2021/06/07 18:50:21;;;;;;;1.40;1.00;;;22.80;93.60;;;;;;4862837;29;20216;-73
2021/06/07 18:52:49;;;;;;;0.80;0.80;;;22.70;93.60;;;;;;4862344;29;20729;-72
2021/06/07 18:55:16;;;;;;;1.17;0.80;;;22.60;94.00;;;;;;4862684;29;20212;-72
2021/06/07 18:57:43;;;;;;;1.95;1.10;;;22.60;94.50;;;;;;4862089;29;20222;-73
2021/06/07 19:00:10;;;;;;;1.55;0.95;;;22.70;94.10;;;;;;4862458;29;20216;-71
2021/06/07 19:02:38;;;;;;;1.52;1.00;;;22.60;94.20;;;;;;4862185;29;20706;-72
2021/06/07 19:05:07;;;;;;;1.73;1.00;;;22.60;94.30;;;;;;4861867;29;20239;-74
2021/06/07 19:07:33;;;;;;;1.52;1.05;;;22.70;94.60;;;;;;4862227;29;20212;-71
2021/06/07 19:10:00;;;;;;;1.10;0.93;;;22.60;95.10;;;;;;4862509;29;20303;-71
2021/06/07 19:12:26;;;;;;;1.42;0.90;;;22.70;95.60;;;;;;4860776;29;20227;-71
2021/06/07 19:14:53;;;;;;;1.23;0.80;;;22.60;95.00;;;;;;4861863;29;20219;-71
2021/06/07 19:17:20;;;;;;;1.15;0.80;;;22.60;95.00;;;;;;4862033;29;20227;-71
2021/06/07 19:19:48;;;;;;;1.08;0.90;;;22.50;95.10;;;;;;4862243;29;20215;-71
2021/06/07 19:22:15;;;;;;;2.40;0.70;;;22.40;96.30;;;;;;4862035;29;20740;-71
2021/06/07 19:24:41;;;;;;;1.30;0.82;;;22.30;97.40;;;;;;4862011;29;20620;-71
2021/06/07 19:27:08;;;;;;;1.00;0.90;;;22.20;98.00;;;;;;4862036;29;20216;-70
2021/06/07 19:29:35;;;;;;;1.55;0.90;;;22.10;98.50;;;;;;4862080;29;20241;-71
2021/06/07 19:32:01;;;;;;;1.25;0.95;;;22.00;98.70;;;;;;4861769;29;20579;-70
2021/06/07 19:34:28;;;;;;;1.02;0.90;;;21.90;99.20;;;;;;4862011;29;20302;-70
2021/06/07 19:36:55;;;;;;;1.48;0.88;;;21.80;99.80;;;;;;4861999;29;20215;-70
2021/06/07 19:39:22;;;;;;;3.47;1.00;;;21.70;99.90;;;;;;4861974;29;20613;-71
2021/06/07 19:41:48;;;;;;;1.40;1.15;;;21.60;99.90;;;;;;4861746;29;20218;-71
2021/06/07 19:44:14;;;;;;;1.80;1.27;;;21.50;99.90;;;;;;4861634;29;20609;-71
2021/06/07 19:46:41;;;;;;;1.02;0.80;;;21.40;99.90;;;;;;4862226;29;20239;-71
2021/06/07 19:49:07;;;;;;;1.40;1.00;;;21.30;99.90;;;;;;4862223;29;20220;-71
2021/06/07 19:51:34;;;;;;;4.57;1.15;;;21.20;99.90;;;;;;4861440;29;20660;-70
2021/06/07 19:54:02;;;;;;;2.10;0.98;;;21.10;99.90;;;;;;4861597;29;20235;-69
2021/06/07 19:56:29;;;;;;;1.20;0.95;;;21.00;99.90;;;;;;4861346;29;20220;-70
2021/06/07 19:58:56;;;;;;;1.60;1.00;;;20.80;99.90;;;;;;4861422;29;20216;-69
2021/06/07 20:01:22;;;;;;;1.27;1.00;;;20.40;99.90;;;;;;4861780;29;20347;-69
2021/06/07 20:03:49;;;;;;;1.33;0.93;;;20.20;99.90;;;;;;4861247;29;20236;-69
2021/06/07 20:06:15;;;;;;;1.27;1.00;;;20.30;99.90;;;;;;4861407;29;20244;-69
2021/06/07 20:08:41;;;;;;;3.22;0.90;;;20.20;99.90;;;;;;4861522;29;20211;-69
2021/06/07 20:11:10;;;;;;;0.73;0.73;;;20.20;99.90;;;;;;4861425;29;20216;-69
2021/06/07 20:13:37;;;;;;;1.48;0.88;;;20.20;99.90;;;;;;4862034;29;20232;-70
2021/06/07 20:16:04;;;;;;;1.92;1.20;;;20.10;99.90;;;;;;4861522;29;20211;-71
2021/06/07 20:18:30;;;;;;;1.48;1.08;;;20.10;99.90;;;;;;4862015;29;20219;-71
2021/06/07 20:20:57;;;;;;;1.65;1.02;;;20.00;99.90;;;;;;4862555;29;20306;-71
2021/06/07 20:23:23;;;;;;;5.07;0.88;;;20.00;99.90;;;;;;4861655;29;20240;-71
2021/06/07 20:25:51;;;;;;;3.20;1.17;;;20.00;99.90;;;;;;4860531;29;20251;-71
2021/06/07 20:28:18;;;;;;;2.08;1.27;;;19.90;99.90;;;;;;4861205;29;20215;-70
2021/06/07 20:30:45;;;;;;;2.55;1.58;;;19.80;99.90;;;;;;4861076;29;20216;-71
2021/06/07 20:33:11;;;;;;;2.78;1.52;;;19.80;99.90;;;;;;4861032;29;20236;-71
2021/06/07 20:35:37;;;;;;;2.47;1.70;;;19.70;99.90;;;;;;4860933;29;20218;-71
2021/06/07 20:38:04;;;;;;;3.97;1.95;;;19.60;99.90;;;;;;4860442;29;20259;-71
2021/06/07 20:40:30;;;;;;;3.13;1.80;;;19.60;99.90;;;;;;4860396;29;20643;-71
2021/06/07 20:42:56;;;;;;;3.50;1.70;;;19.60;99.90;;;;;;4860832;29;20244;-71
2021/06/07 20:45:25;;;;;;;1.50;1.40;;;19.60;99.90;;;;;;4860731;29;20782;-70
